Time;durP1;ratioP1;P1;durP2;ratioP2;P2;SDS_P1;SDS_P2;PMS_P1;PMS_P2;Temp;Humidity;BMP_temperature;BMP_pressure;BME280_temperature;BME280_humidity;BME280_pressure;Samples;Min_cycle;Max_cycle;Signal;HPM_P1;HPM_P2
2021/01/14 00:02:24;;;;;;;2.40;2.05;;;2.90;86.80;;;1.12;84.46;95346.97;4990138;28;20050;-68
2021/01/14 00:04:50;;;;;;;2.95;2.10;;;2.90;86.80;;;1.12;84.30;95352.13;5005190;28;20801;-68
2021/01/14 00:07:16;;;;;;;2.65;1.80;;;2.90;86.70;;;1.12;85.09;95362.50;4987003;28;20026;-68
2021/01/14 00:09:42;;;;;;;2.53;1.88;;;2.90;86.80;;;1.13;85.03;95353.78;4990184;28;20355;-68
2021/01/14 00:12:07;;;;;;;4.53;1.98;;;2.90;86.60;;;1.14;84.96;95349.44;4989569;28;20030;-68
2021/01/14 00:14:33;;;;;;;2.72;2.10;;;2.90;86.50;;;1.14;84.39;95370.97;4990359;28;20506;-68
2021/01/14 00:16:59;;;;;;;2.58;1.90;;;2.90;86.60;;;1.14;84.54;95381.31;4988200;28;20402;-68
2021/01/14 00:19:25;;;;;;;2.78;2.30;;;3.00;86.50;;;1.13;84.59;95381.44;4989458;28;20040;-69
2021/01/14 00:21:50;;;;;;;2.38;2.03;;;2.90;86.70;;;1.13;85.56;95387.47;4969131;28;20126;-68
2021/01/14 00:24:16;;;;;;;2.50;2.10;;;2.90;86.90;;;1.12;85.38;95398.75;4987027;28;20507;-68
2021/01/14 00:26:42;;;;;;;2.75;2.20;;;2.90;86.90;;;1.12;84.81;95391.00;4988158;28;20045;-68
2021/01/14 00:29:07;;;;;;;2.88;2.35;;;2.90;87.00;;;1.13;85.45;95408.19;4989145;28;20038;-68
2021/01/14 00:31:34;;;;;;;3.10;2.63;;;2.90;86.90;;;1.13;85.59;95404.75;4989953;28;20030;-68
2021/01/14 00:34:00;;;;;;;3.55;2.80;;;2.90;87.00;;;1.10;85.13;95390.31;4989377;28;20034;-68
2021/01/14 00:39:24;;;;;;;3.92;3.17;;;2.80;87.40;;;1.08;84.80;95402.63;4988519;28;20492;-68
2021/01/14 00:41:50;;;;;;;4.40;2.80;;;2.80;87.60;;;1.07;85.64;95403.56;4971911;28;20074;-68
2021/01/14 00:44:15;;;;;;;3.90;3.13;;;2.80;87.40;;;1.06;85.12;95412.31;4989435;28;20077;-68
2021/01/14 00:46:41;;;;;;;4.30;3.05;;;2.80;87.50;;;1.05;85.92;95413.28;4989158;28;20042;-68
2021/01/14 00:49:07;;;;;;;5.20;3.60;;;2.80;87.20;;;1.05;85.11;95402.09;4987380;28;20079;-68
2021/01/14 00:51:36;;;;;;;6.13;3.60;;;2.80;87.40;;;1.05;86.57;95405.50;4988037;28;20104;-68
2021/01/14 00:54:03;;;;;;;4.85;3.55;;;2.80;87.10;;;1.04;85.79;95409.06;4987753;28;20049;-68
2021/01/14 00:56:36;;;;;;;4.10;3.38;;;2.80;87.00;;;1.07;86.66;95423.47;4955834;28;20084;-68
2021/01/14 00:59:05;;;;;;;4.30;3.47;;;2.90;86.60;;;1.05;85.50;95428.00;4988599;28;20053;-68
2021/01/14 01:01:31;;;;;;;4.35;3.47;;;2.90;86.30;;;1.04;84.56;95429.78;4988915;28;20117;-68
2021/01/14 01:03:57;;;;;;;5.15;4.18;;;2.80;86.10;;;1.03;84.57;95415.19;4987654;28;20038;-68
2021/01/14 01:06:24;;;;;;;6.38;4.35;;;2.80;86.10;;;1.04;85.48;95405.66;4988935;28;20045;-68
2021/01/14 01:08:50;;;;;;;5.70;4.55;;;2.90;85.80;;;1.04;84.26;95403.88;4988622;28;20034;-69
2021/01/14 01:11:25;;;;;;;5.10;4.13;;;2.90;84.90;;;1.04;84.92;95384.94;4986992;28;20038;-68
2021/01/14 01:13:51;;;;;;;6.55;4.88;;;2.80;84.50;;;1.00;84.12;95389.59;4988978;28;20039;-68
2021/01/14 01:16:17;;;;;;;5.57;4.20;;;2.70;84.30;;;0.99;84.12;95413.06;4987234;28;20097;-68
2021/01/14 01:18:43;;;;;;;6.07;4.63;;;2.70;84.10;;;0.96;84.29;95421.94;4988408;28;20033;-68
2021/01/14 01:21:09;;;;;;;6.07;4.65;;;2.60;83.90;;;0.96;83.93;95415.94;4986681;28;20038;-68
2021/01/14 01:23:35;;;;;;;6.68;5.07;;;2.60;83.90;;;0.94;83.48;95421.28;4987502;28;20060;-68
2021/01/14 01:26:01;;;;;;;5.15;4.10;;;2.70;83.70;;;0.92;83.76;95441.31;4987999;28;20069;-68
2021/01/14 01:28:27;;;;;;;5.75;3.88;;;2.60;83.70;;;0.92;83.05;95443.91;4988259;28;20038;-68
2021/01/14 01:30:52;;;;;;;5.93;3.97;;;2.60;82.80;;;0.87;83.38;95449.50;4988449;28;20092;-68
2021/01/14 01:33:18;;;;;;;4.75;3.78;;;2.60;82.60;;;0.88;83.33;95455.47;4988075;28;20529;-68
2021/01/14 01:35:49;;;;;;;6.90;4.75;;;2.60;82.80;;;0.88;83.22;95447.72;4988644;28;20031;-68
2021/01/14 01:38:15;;;;;;;;;;;2.60;82.60;;;0.84;83.54;95436.03;4988991;28;20038;-68
2021/01/14 01:40:41;;;;;;;5.53;3.67;;;2.60;82.10;;;0.83;82.86;95431.81;4989001;28;19913;-68
2021/01/14 01:43:07;;;;;;;5.30;3.55;;;2.50;81.90;;;0.80;82.58;95445.06;4987766;28;20518;-68
2021/01/14 01:45:33;;;;;;;5.45;3.88;;;2.50;81.90;;;0.80;81.97;95447.63;4988918;28;20096;-68
2021/01/14 01:47:59;;;;;;;5.95;3.67;;;2.50;82.00;;;0.78;82.57;95441.78;4987888;28;20088;-68
2021/01/14 01:50:26;;;;;;;4.90;3.50;;;2.50;81.60;;;0.78;82.13;95431.44;4986867;28;20061;-68
2021/01/14 01:52:51;;;;;;;4.88;3.55;;;2.50;81.40;;;0.73;82.02;95418.13;4988460;28;20502;-68
2021/01/14 01:55:17;;;;;;;5.43;3.30;;;2.40;81.30;;;0.78;82.00;95418.50;4970212;28;20042;-68
2021/01/14 01:57:43;;;;;;;5.47;3.80;;;2.60;81.40;;;0.77;81.67;95407.34;4986523;28;20034;-69
2021/01/14 02:00:09;;;;;;;4.90;3.70;;;2.50;81.20;;;0.78;82.38;95415.91;4970803;28;20125;-68
2021/01/14 02:02:35;;;;;;;6.70;4.53;;;2.50;81.60;;;0.75;81.71;95427.38;4988161;28;20069;-69
2021/01/14 02:05:01;;;;;;;5.60;4.03;;;2.40;82.20;;;0.77;81.81;95412.50;4987505;28;20522;-68
2021/01/14 02:07:39;;;;;;;5.43;4.10;;;2.60;82.20;;;0.78;82.75;95424.50;4987928;28;20138;-68
2021/01/14 02:10:18;;;;;;;6.30;4.57;;;2.60;82.10;;;0.79;82.86;95427.88;4956095;28;20089;-68
2021/01/14 02:13:08;;;;;;;6.63;4.43;;;2.60;82.30;;;0.78;83.31;95431.44;4987344;28;20113;-68
2021/01/14 02:15:34;;;;;;;5.53;4.50;;;2.60;82.50;;;0.73;81.97;95420.72;4988032;28;20042;-68
2021/01/14 02:18:00;;;;;;;6.50;4.15;;;2.60;82.40;;;0.79;82.18;95427.88;4954373;28;20038;-68
2021/01/14 02:20:25;;;;;;;7.50;4.50;;;2.60;82.60;;;0.79;82.18;95438.25;4987131;28;20177;-68
2021/01/14 02:22:57;;;;;;;5.63;4.15;;;2.60;82.80;;;0.79;83.03;95427.88;4982363;28;20134;-68
2021/01/14 02:25:26;;;;;;;5.65;3.75;;;2.60;82.90;;;0.80;82.95;95430.34;4970763;28;20057;-68
2021/01/14 02:27:51;;;;;;;5.13;4.18;;;2.60;83.00;;;0.80;82.48;95429.53;4954742;28;20042;-68
2021/01/14 02:30:18;;;;;;;5.18;3.92;;;2.60;82.90;;;0.80;82.79;95434.69;4972234;28;20077;-69
2021/01/14 02:32:43;;;;;;;5.05;3.70;;;2.60;82.60;;;0.82;82.42;95437.94;4992034;28;20038;-68
2021/01/14 02:35:10;;;;;;;7.85;3.50;;;2.60;82.70;;;0.79;82.92;95428.72;4973415;28;20038;-68
2021/01/14 02:37:35;;;;;;;4.40;3.40;;;2.60;82.90;;;0.81;82.60;95441.50;4989991;28;20525;-68
2021/01/14 02:40:01;;;;;;;5.13;3.70;;;2.60;82.80;;;0.82;82.86;95453.47;4987770;28;20121;-68
2021/01/14 02:42:27;;;;;;;5.25;3.75;;;2.60;83.00;;;0.82;82.49;95456.88;4991377;28;20476;-68
2021/01/14 02:44:53;;;;;;;4.90;3.88;;;2.70;83.20;;;0.82;82.27;95459.47;4991774;28;20035;-68
2021/01/14 02:47:18;;;;;;;4.85;3.50;;;2.60;83.10;;;0.83;82.21;95449.94;4991265;28;20053;-68
2021/01/14 02:50:00;;;;;;;4.57;3.88;;;2.60;82.80;;;0.84;83.35;95452.38;4973907;28;20038;-68
2021/01/14 02:52:26;;;;;;;4.53;3.40;;;2.60;82.90;;;0.85;82.83;95458.38;4960113;28;20100;-68
2021/01/14 02:54:52;;;;;;;4.88;3.42;;;2.60;82.80;;;0.85;81.76;95459.19;4970432;28;20059;-68
2021/01/14 02:57:18;;;;;;;4.50;3.47;;;2.70;82.50;;;0.85;82.28;95456.59;4988184;28;20035;-68
2021/01/14 02:59:46;;;;;;;6.03;3.97;;;2.60;82.10;;;0.84;82.69;95457.56;4973966;28;20042;-68
2021/01/14 03:02:13;;;;;;;4.60;3.40;;;2.60;81.90;;;0.85;82.50;95445.41;4989789;28;20156;-68
2021/01/14 03:04:39;;;;;;;4.85;3.50;;;2.60;81.90;;;0.83;82.28;95457.69;4991450;28;20038;-68
2021/01/14 03:07:04;;;;;;;4.50;3.40;;;2.60;81.90;;;0.84;82.55;95461.91;4990852;28;20498;-68
2021/01/14 03:09:30;;;;;;;3.88;3.20;;;2.60;82.30;;;0.82;82.31;95454.28;4990254;28;20027;-68
2021/01/14 03:11:56;;;;;;;4.18;3.47;;;2.60;81.30;;;0.81;82.43;95459.63;4991275;28;20045;-68
2021/01/14 03:14:22;;;;;;;5.97;3.38;;;2.50;81.10;;;0.75;82.08;95436.91;4989370;28;20054;-68
2021/01/14 03:16:47;;;;;;;5.75;3.72;;;2.50;79.80;;;0.81;81.22;95459.63;4990879;28;20042;-68
2021/01/14 03:19:13;;;;;;;3.63;2.88;;;2.50;80.10;;;0.80;81.52;95461.41;4990561;28;20173;-68
2021/01/14 03:21:39;;;;;;;4.65;3.53;;;2.50;80.40;;;0.80;80.88;95460.59;4991237;28;20666;-68
2021/01/14 03:24:05;;;;;;;6.60;3.40;;;2.50;80.20;;;0.79;81.14;95459.75;4989348;28;20038;-68
2021/01/14 03:26:34;;;;;;;5.22;3.70;;;2.50;80.00;;;0.78;80.92;95462.50;4990623;28;20092;-68
2021/01/14 03:29:00;;;;;;;5.65;3.20;;;2.40;79.60;;;0.77;80.30;95460.88;4989007;28;20121;-68
2021/01/14 03:31:26;;;;;;;4.80;3.60;;;2.40;79.40;;;0.76;80.77;95467.81;4990695;28;20038;-68
2021/01/14 03:33:51;;;;;;;8.40;3.50;;;2.40;79.00;;;0.77;79.99;95468.63;4989249;28;20093;-68
2021/01/14 03:36:18;;;;;;;4.93;3.55;;;2.50;79.40;;;0.77;80.30;95481.59;4990807;28;20042;-68
2021/01/14 03:38:44;;;;;;;7.38;3.33;;;2.50;79.00;;;0.77;80.04;95477.22;4988901;28;20054;-68
2021/01/14 03:41:11;;;;;;;4.63;3.45;;;2.50;79.20;;;0.77;80.26;95481.59;4988860;28;20510;-68
2021/01/14 03:43:37;;;;;;;5.57;3.63;;;2.50;79.10;;;0.75;80.56;95486.09;4965066;28;20526;-68
2021/01/14 03:46:12;;;;;;;7.18;3.80;;;2.50;79.20;;;0.75;80.34;95493.84;4979229;28;20050;-68
2021/01/14 03:48:51;;;;;;;4.82;3.30;;;2.60;79.10;;;0.76;80.88;95498.06;4989682;28;20034;-70
2021/01/14 03:51:19;;;;;;;5.28;3.63;;;2.50;79.50;;;0.75;80.15;95504.22;4990789;28;20572;-69
2021/01/14 03:53:46;;;;;;;8.05;3.80;;;2.40;79.30;;;0.73;80.24;95501.75;4990641;28;20422;-68
2021/01/14 03:56:11;;;;;;;6.53;3.63;;;2.40;79.80;;;0.74;80.09;95497.41;4990271;28;20033;-68
2021/01/14 03:58:37;;;;;;;8.02;3.88;;;2.50;79.60;;;0.73;80.96;95521.66;4989146;28;20070;-68
2021/01/14 04:01:03;;;;;;;5.40;3.97;;;2.40;79.60;;;0.72;79.79;95520.03;4990031;28;20034;-68
2021/01/14 04:03:29;;;;;;;5.82;3.53;;;2.40;79.80;;;0.70;80.68;95520.16;4971678;28;20122;-68
2021/01/14 04:05:55;;;;;;;5.45;3.63;;;2.40;79.70;;;0.72;80.75;95504.50;4982538;28;20050;-68
2021/01/14 04:08:20;;;;;;;8.60;3.70;;;2.50;79.70;;;0.72;80.47;95507.09;4989610;28;20580;-68
2021/01/14 04:10:47;;;;;;;9.45;3.80;;;2.40;79.40;;;0.70;80.19;95507.22;4988836;28;20039;-69
2021/01/14 04:13:14;;;;;;;7.78;4.18;;;2.40;79.80;;;0.70;80.57;95511.59;4969924;28;20494;-68
2021/01/14 04:15:40;;;;;;;6.40;3.63;;;2.40;79.90;;;0.70;79.79;95512.41;4978205;28;20494;-69
2021/01/14 04:18:06;;;;;;;7.80;4.28;;;2.50;79.90;;;0.70;80.78;95511.59;4990251;28;20030;-67
2021/01/14 04:20:32;;;;;;;6.00;4.13;;;2.50;79.40;;;0.70;80.28;95521.94;4990636;28;20597;-69
2021/01/14 04:22:58;;;;;;;7.03;4.18;;;2.50;79.40;;;0.70;79.95;95521.94;4990272;28;20070;-68
2021/01/14 04:25:30;;;;;;;7.95;4.63;;;2.50;79.50;;;0.68;80.58;95534.19;4989306;28;20048;-68
2021/01/14 04:28:00;;;;;;;8.38;4.43;;;2.50;79.50;;;0.66;80.08;95536.09;4988500;28;20093;-68
2021/01/14 04:30:27;;;;;;;8.15;4.68;;;2.30;79.60;;;0.64;80.44;95548.38;4973468;28;20039;-69
2021/01/14 04:32:58;;;;;;;9.10;4.70;;;2.30;80.00;;;0.63;80.25;95549.34;4990279;28;20502;-68
2021/01/14 04:35:25;;;;;;;;;;;2.30;80.00;;;0.61;80.69;95550.28;4988837;28;20053;-69
2021/01/14 04:37:51;;;;;;;8.07;4.97;;;2.30;79.80;;;0.58;79.90;95566.09;4989681;28;19921;-68
2021/01/14 04:40:17;;;;;;;10.00;4.97;;;2.20;80.20;;;0.59;80.52;95569.50;4990056;28;20037;-69
2021/01/14 04:42:43;;;;;;;8.50;5.15;;;2.30;81.30;;;0.55;80.82;95568.97;4989219;28;20034;-68
2021/01/14 04:45:10;;;;;;;10.10;5.28;;;2.10;81.90;;;0.52;80.47;95577.03;4988387;28;20526;-69
2021/01/14 04:47:36;;;;;;;10.02;5.88;;;2.20;81.90;;;0.50;80.84;95575.53;4989213;28;20092;-69
2021/01/14 04:50:01;;;;;;;9.85;5.30;;;2.20;81.80;;;0.49;80.83;95564.38;4956191;28;20034;-69
2021/01/14 04:52:27;;;;;;;8.85;5.30;;;2.20;80.70;;;0.47;80.65;95558.53;4989340;28;20050;-69
2021/01/14 04:54:53;;;;;;;9.05;5.70;;;2.20;80.30;;;0.47;80.67;95584.41;4956197;28;20030;-68
2021/01/14 04:57:18;;;;;;;7.25;5.20;;;2.20;80.50;;;0.48;80.96;95578.25;4968566;28;20450;-69
2021/01/14 04:59:52;;;;;;;9.40;5.25;;;2.30;80.40;;;0.48;80.91;95592.97;4954392;28;20034;-68
2021/01/14 05:02:24;;;;;;;9.88;5.13;;;2.30;80.40;;;0.47;80.40;95591.34;4988038;28;20441;-69
2021/01/14 05:04:53;;;;;;;9.10;5.30;;;2.20;80.00;;;0.47;81.00;95597.31;4989537;28;20516;-69
2021/01/14 05:07:30;;;;;;;8.18;5.50;;;2.20;80.20;;;0.45;80.97;95596.63;4971414;28;20061;-69
2021/01/14 05:10:04;;;;;;;8.30;5.43;;;2.10;80.40;;;0.46;80.98;95593.13;4989540;28;20030;-68
2021/01/14 05:12:32;;;;;;;9.13;5.75;;;2.20;80.40;;;0.46;81.19;95587.94;4988609;28;20058;-69
2021/01/14 05:14:59;;;;;;;8.05;5.07;;;2.20;80.70;;;0.46;80.19;95581.94;4988239;28;20057;-69
2021/01/14 05:17:26;;;;;;;10.07;5.43;;;2.20;79.90;;;0.46;80.35;95572.41;4988710;28;20034;-69
2021/01/14 05:19:56;;;;;;;11.43;5.43;;;2.30;80.00;;;0.48;80.57;95586.03;4972243;28;20044;-69
2021/01/14 05:22:25;;;;;;;9.00;5.50;;;2.20;80.20;;;0.46;80.56;95574.19;4989427;28;20398;-69
2021/01/14 05:25:05;;;;;;;9.13;5.30;;;2.20;79.80;;;0.44;80.81;95574.28;4986049;28;20305;-69
2021/01/14 05:27:31;;;;;;;7.28;4.88;;;2.20;79.60;;;0.43;80.06;95588.19;4988726;28;20036;-69
2021/01/14 05:30:08;;;;;;;10.40;5.22;;;2.20;78.30;;;0.38;79.96;95587.78;4987721;28;20062;-69
2021/01/14 05:32:41;;;;;;;8.52;5.47;;;2.30;78.60;;;0.42;79.58;95596.91;4987465;28;20031;-68
2021/01/14 05:35:10;;;;;;;8.52;5.22;;;2.20;78.50;;;0.41;80.12;95603.03;4967997;28;20030;-69
2021/01/14 05:37:37;;;;;;;7.88;4.50;;;2.20;78.50;;;0.39;79.44;95604.94;4952750;28;20026;-68
2021/01/14 05:40:06;;;;;;;7.80;4.90;;;2.20;78.00;;;0.38;79.09;95610.25;4981009;28;20030;-68
2021/01/14 05:42:32;;;;;;;9.50;4.80;;;2.10;77.60;;;0.36;79.72;95618.16;4989568;28;20420;-68
2021/01/14 05:44:58;;;;;;;11.50;5.00;;;2.20;77.50;;;0.34;79.60;95625.25;4988847;28;20026;-68
2021/01/14 05:47:28;;;;;;;8.88;4.75;;;2.10;77.40;;;0.31;79.12;95620.34;4988070;28;20038;-68
2021/01/14 05:50:01;;;;;;;6.95;4.22;;;2.00;77.50;;;0.28;79.61;95611.09;4985962;28;20053;-67
2021/01/14 05:52:29;;;;;;;8.15;4.63;;;2.10;77.90;;;0.30;79.55;95623.91;4996260;28;20062;-65
2021/01/14 05:55:07;;;;;;;6.32;4.18;;;2.10;78.10;;;0.29;79.57;95627.44;4984872;28;20046;-65
2021/01/14 05:57:35;;;;;;;9.77;4.88;;;2.10;77.90;;;0.29;79.41;95633.44;4987719;28;20046;-68
2021/01/14 06:00:07;;;;;;;8.98;4.80;;;2.10;78.20;;;0.31;79.53;95641.03;4971512;28;20042;-68
2021/01/14 06:02:33;;;;;;;10.60;5.65;;;2.20;78.00;;;0.30;79.47;95654.94;4988702;28;20042;-65
2021/01/14 06:04:59;;;;;;;10.93;4.50;;;2.10;78.30;;;0.29;79.69;95658.47;4989923;28;20034;-68
2021/01/14 06:07:37;;;;;;;10.82;5.18;;;2.10;78.70;;;0.29;79.70;95658.47;4984649;28;20097;-69
2021/01/14 06:10:03;;;;;;;8.35;5.38;;;2.20;78.40;;;0.32;79.82;95657.38;4992285;28;20328;-69
2021/01/14 06:12:29;;;;;;;8.52;5.20;;;2.30;78.50;;;0.32;79.29;95660.78;5005194;28;20051;-69
2021/01/14 06:14:55;;;;;;;8.63;4.93;;;2.30;78.70;;;0.31;80.13;95664.31;5007597;28;20038;-69
2021/01/14 06:17:31;;;;;;;9.20;4.93;;;2.20;78.90;;;0.29;80.39;95674.00;5000469;28;20034;-69
2021/01/14 06:20:07;;;;;;;8.10;4.97;;;2.10;79.30;;;0.27;80.16;95681.91;4964831;28;20754;-69
2021/01/14 06:22:34;;;;;;;9.23;5.53;;;2.20;79.40;;;0.25;79.51;95677.81;5001047;28;20026;-69
2021/01/14 06:25:00;;;;;;;10.10;5.43;;;2.20;79.20;;;0.25;79.57;95683.00;4955552;28;20035;-69
2021/01/14 06:27:25;;;;;;;11.65;5.60;;;2.10;79.50;;;0.21;79.61;95682.41;4979931;28;20046;-69
2021/01/14 06:30:00;;;;;;;10.02;5.88;;;2.00;79.60;;;0.19;80.61;95681.72;4991863;28;20038;-69
2021/01/14 06:32:25;;;;;;;10.18;5.72;;;2.00;79.80;;;0.18;80.44;95672.34;4991064;28;20129;-69
2021/01/14 06:34:51;;;;;;;9.45;5.53;;;2.00;79.60;;;0.17;79.87;95690.59;4991579;28;20088;-67
2021/01/14 06:37:25;;;;;;;8.38;5.05;;;1.90;79.70;;;0.14;80.13;95701.19;4991210;28;20092;-67
2021/01/14 06:39:58;;;;;;;9.00;5.35;;;1.90;79.70;;;0.14;79.56;95702.03;4990669;28;20690;-67
2021/01/14 06:42:35;;;;;;;11.68;5.90;;;1.90;79.00;;;0.13;79.15;95689.22;4990389;28;20030;-65
2021/01/14 06:45:08;;;;;;;8.90;4.53;;;1.80;78.10;;;0.10;78.90;95703.25;4990866;28;20034;-65
2021/01/14 06:47:40;;;;;;;8.80;4.95;;;1.90;77.70;;;0.11;79.46;95707.47;4989831;28;20053;-65
2021/01/14 06:50:15;;;;;;;11.88;4.65;;;1.90;77.60;;;0.11;78.41;95706.66;4990964;28;20466;-68
2021/01/14 06:53:15;;;;;;;12.18;3.95;;;1.90;77.00;;;0.11;77.31;95706.66;4991933;28;20172;-68
2021/01/14 06:55:41;;;;;;;8.93;4.43;;;1.90;75.70;;;0.12;78.51;95716.03;4989624;28;20052;-66
2021/01/14 06:58:16;;;;;;;8.23;4.20;;;1.90;76.00;;;0.10;77.01;95716.19;4989723;28;20502;-70
2021/01/14 07:00:46;;;;;;;8.57;4.07;;;1.90;74.90;;;0.09;77.76;95724.88;4986182;28;20836;-67
2021/01/14 07:03:24;;;;;;;9.85;4.80;;;1.80;74.70;;;0.09;76.60;95724.88;4989739;28;20057;-67
2021/01/14 07:05:56;;;;;;;7.25;4.07;;;1.80;74.00;;;0.09;77.25;95730.06;4989245;28;20102;-68
2021/01/14 07:08:39;;;;;;;6.28;3.40;;;1.90;74.10;;;0.08;76.14;95743.13;4991422;28;20042;-67
2021/01/14 07:11:17;;;;;;;8.00;3.67;;;1.80;73.70;;;0.07;76.54;95744.88;4989225;28;20062;-66
2021/01/14 07:13:47;;;;;;;11.20;3.88;;;1.80;73.70;;;0.07;76.86;95757.81;4989706;28;20122;-68
2021/01/14 07:16:17;;;;;;;10.23;3.88;;;1.90;73.70;;;0.08;77.24;95746.53;4988368;28;20038;-65
2021/01/14 07:18:46;;;;;;;7.13;3.90;;;1.90;73.90;;;0.09;77.20;95753.31;4991056;28;20026;-67
2021/01/14 07:21:37;;;;;;;7.30;3.97;;;1.90;74.00;;;0.08;76.30;95743.94;4989036;28;20053;-69
2021/01/14 07:24:20;;;;;;;10.45;5.00;;;2.00;74.30;;;0.09;77.31;95747.34;4987786;28;20107;-67
2021/01/14 07:26:47;;;;;;;16.80;8.25;;;1.90;74.50;;;0.07;77.30;95757.00;4983406;28;20130;-68
2021/01/14 07:29:13;;;;;;;8.38;4.78;;;1.80;73.90;;;0.04;76.95;95755.50;4971100;28;20404;-67
2021/01/14 07:31:53;;;;;;;8.25;4.38;;;1.80;74.10;;;0.05;76.03;95770.06;4988594;28;20053;-69
2021/01/14 07:34:40;;;;;;;6.63;4.10;;;1.80;74.20;;;0.06;75.88;95765.72;4989740;28;20030;-69
2021/01/14 07:37:08;;;;;;;8.73;4.13;;;1.80;73.70;;;0.07;77.14;95767.34;4991119;28;20414;-69
2021/01/14 07:39:46;;;;;;;10.95;4.55;;;1.90;74.40;;;0.07;75.73;95782.84;4991434;28;20034;-70
2021/01/14 07:42:33;;;;;;;8.70;4.43;;;1.80;73.70;;;0.08;75.83;95774.16;4988923;28;20030;-67
2021/01/14 07:45:03;;;;;;;7.05;4.13;;;1.90;74.10;;;0.08;76.47;95774.16;4989304;28;20042;-69
2021/01/14 07:47:32;;;;;;;7.25;4.47;;;1.90;74.20;;;0.08;76.64;95785.31;4987078;28;20406;-69
2021/01/14 07:50:16;;;;;;;9.15;4.57;;;2.00;74.10;;;0.08;76.70;95779.31;4990427;28;20042;-71
2021/01/14 07:52:42;;;;;;;11.65;7.32;;;2.00;73.90;;;0.10;76.85;95785.19;4990346;28;20046;-72
2021/01/14 07:55:08;;;;;;;10.15;4.70;;;2.00;74.30;;;0.12;76.75;95798.78;4989619;28;20026;-70
2021/01/14 07:57:46;;;;;;;18.55;7.78;;;2.00;73.80;;;0.14;77.03;95800.28;4990854;28;20027;-71
2021/01/14 08:00:23;;;;;;;14.48;6.55;;;2.10;74.60;;;0.18;76.75;95799.06;4991522;28;20033;-69
2021/01/14 08:03:04;;;;;;;18.67;9.40;;;2.10;74.70;;;0.20;76.57;95807.50;4989185;28;20030;-73
2021/01/14 08:05:58;;;;;;;18.42;8.55;;;2.10;74.60;;;0.24;76.44;95808.09;4990668;28;20505;-71
2021/01/14 08:08:36;;;;;;;13.27;7.68;;;2.20;75.10;;;0.26;76.42;95813.94;4991243;28;20107;-68
2021/01/14 08:11:16;;;;;;;14.52;5.97;;;2.20;74.00;;;0.26;75.99;95834.63;4972835;28;20034;-68
2021/01/14 08:14:08;;;;;;;12.93;5.95;;;2.10;73.70;;;0.28;76.03;95832.72;4990961;28;20026;-70
2021/01/14 08:16:37;;;;;;;9.57;4.55;;;2.30;73.40;;;0.27;76.56;95846.63;4990575;28;20046;-71
2021/01/14 08:19:28;;;;;;;10.40;5.18;;;2.20;73.20;;;0.26;75.79;95855.34;4990702;28;20521;-68
2021/01/14 08:22:02;;;;;;;9.30;4.47;;;2.10;73.00;;;0.25;76.14;95858.88;4977685;28;20038;-70
2021/01/14 08:24:50;;;;;;;15.15;5.72;;;2.10;73.20;;;0.26;75.31;95865.69;4989823;28;20041;-70
2021/01/14 08:27:38;;;;;;;12.68;5.88;;;2.10;73.00;;;0.26;75.35;95883.78;4988263;28;20058;-66
2021/01/14 08:30:16;;;;;;;8.55;4.85;;;2.10;72.90;;;0.28;75.26;95884.47;4988971;28;20035;-71
2021/01/14 08:33:08;;;;;;;7.13;4.50;;;2.20;72.70;;;0.27;75.42;95888.81;4982863;28;20117;-70
2021/01/14 08:35:37;;;;;;;8.43;4.80;;;2.10;72.80;;;0.30;76.17;95887.75;4970577;28;20030;-69
2021/01/14 08:38:03;;;;;;;15.38;7.57;;;2.30;72.70;;;0.33;76.17;95892.66;4976453;28;20029;-70
2021/01/14 08:40:34;;;;;;;20.10;10.13;;;2.20;72.10;;;0.34;76.10;95894.28;4989075;28;20046;-69
2021/01/14 08:43:09;;;;;;;;;;;2.30;72.80;;;0.37;75.31;95896.59;4980473;28;20043;-71
2021/01/14 08:45:43;;;;;;;11.10;5.53;;;2.40;72.30;;;0.41;76.12;95907.50;5008280;28;19918;-71
2021/01/14 08:48:22;;;;;;;10.52;4.53;;;2.40;72.40;;;0.43;74.91;95913.38;5008078;28;20030;-70
2021/01/14 08:51:00;;;;;;;7.97;4.78;;;2.40;71.80;;;0.44;74.70;95915.81;4995534;28;20042;-71
2021/01/14 08:53:38;;;;;;;7.18;4.47;;;2.40;71.60;;;0.45;74.87;95912.28;4987499;28;20065;-67
2021/01/14 08:56:18;;;;;;;8.73;4.13;;;2.40;71.20;;;0.44;74.24;95908.06;4989270;28;20033;-67
2021/01/14 08:58:48;;;;;;;11.10;4.67;;;2.40;71.30;;;0.47;75.41;95907.00;4988271;28;20517;-68
2021/01/14 09:01:23;;;;;;;7.40;4.45;;;2.40;71.60;;;0.47;74.41;95905.22;4988074;28;20109;-67
2021/01/14 09:03:51;;;;;;;8.30;4.57;;;2.40;71.30;;;0.47;75.28;95907.81;4988343;28;20077;-67
2021/01/14 09:06:37;;;;;;;8.23;4.65;;;2.30;71.20;;;0.46;74.42;95908.78;4991848;28;20053;-67
2021/01/14 09:09:14;;;;;;;9.75;4.43;;;2.30;71.30;;;0.48;74.62;95912.03;4983759;28;20049;-63
2021/01/14 09:11:40;;;;;;;8.18;4.13;;;2.40;71.60;;;0.46;74.81;95913.94;4988996;28;20046;-66
2021/01/14 09:14:13;;;;;;;7.60;4.28;;;2.20;71.20;;;0.47;74.74;95919.94;4990114;28;20053;-67
2021/01/14 09:16:43;;;;;;;9.45;4.18;;;2.30;71.30;;;0.48;74.86;95922.41;4984343;28;20038;-71
2021/01/14 09:19:16;;;;;;;8.43;4.03;;;2.40;70.90;;;0.52;74.19;95928.94;4987706;28;20046;-71
2021/01/14 09:21:41;;;;;;;12.38;5.00;;;2.40;71.20;;;0.52;74.93;95934.13;4981134;28;20038;-70
2021/01/14 09:24:12;;;;;;;9.23;4.60;;;2.40;71.60;;;0.51;74.56;95924.72;4986758;28;20407;-68
2021/01/14 09:26:41;;;;;;;14.57;6.13;;;2.40;70.90;;;0.52;74.88;95922.94;4981993;28;20088;-67
2021/01/14 09:29:07;;;;;;;7.80;4.60;;;2.40;71.30;;;0.54;74.67;95934.78;4987974;28;20329;-67
2021/01/14 09:31:34;;;;;;;16.20;9.18;;;2.40;71.00;;;0.56;75.00;95937.25;4989003;28;20071;-69
2021/01/14 09:33:59;;;;;;;9.18;4.38;;;2.50;70.60;;;0.57;74.45;95941.47;4988298;28;20501;-69
2021/01/14 09:36:25;;;;;;;9.85;4.53;;;2.50;70.40;;;0.59;75.02;95950.75;4989214;28;20041;-69
2021/01/14 09:38:53;;;;;;;10.63;4.13;;;2.60;70.20;;;0.63;74.46;95974.59;4987905;28;20689;-70
2021/01/14 09:41:29;;;;;;;9.25;4.53;;;2.60;69.50;;;0.66;73.53;95969.16;4988849;28;20518;-70
2021/01/14 09:44:07;;;;;;;10.43;4.65;;;2.60;68.50;;;0.68;72.81;95979.38;4989145;28;20038;-69
2021/01/14 09:46:41;;;;;;;10.65;5.18;;;2.70;68.80;;;0.68;72.72;95987.13;4989274;28;20085;-69
2021/01/14 09:49:09;;;;;;;8.30;4.32;;;2.70;69.30;;;0.67;74.04;95990.69;4989441;28;20054;-69
2021/01/14 09:51:36;;;;;;;9.23;4.53;;;2.60;69.30;;;0.68;73.88;95987.13;4988976;28;20046;-67
2021/01/14 09:54:08;;;;;;;10.73;5.07;;;2.60;69.20;;;0.68;72.60;95984.53;4989451;28;20058;-67
2021/01/14 09:56:39;;;;;;;7.25;3.80;;;2.60;68.60;;;0.68;73.64;96000.94;4988695;28;20129;-66
2021/01/14 09:59:20;;;;;;;10.25;3.88;;;2.60;69.40;;;0.70;72.06;95993.03;4988032;28;20031;-66
2021/01/14 10:01:50;;;;;;;7.95;3.42;;;2.60;68.60;;;0.69;72.48;95992.22;5017441;28;20046;-67
2021/01/14 10:04:18;;;;;;;9.55;3.55;;;2.70;67.10;;;0.73;73.36;95995.34;4971634;28;20564;-66
2021/01/14 10:06:48;;;;;;;11.15;3.33;;;2.70;66.60;;;0.71;72.45;96002.44;4968326;28;20046;-69
2021/01/14 10:09:15;;;;;;;9.98;4.45;;;2.60;65.00;;;0.67;73.06;96009.63;4971481;28;20125;-68
2021/01/14 10:11:40;;;;;;;7.55;2.88;;;2.60;65.00;;;0.67;72.13;96012.19;4987592;28;20039;-69
2021/01/14 10:14:16;;;;;;;6.25;2.60;;;2.60;63.70;;;0.68;69.10;96005.25;4968292;28;20050;-68
2021/01/14 10:16:42;;;;;;;6.13;2.40;;;2.70;62.10;;;0.69;71.54;96006.91;4968488;28;20039;-69
2021/01/14 10:19:15;;;;;;;7.50;3.00;;;2.80;62.00;;;0.67;71.57;96008.78;4980937;28;20032;-68
2021/01/14 10:21:41;;;;;;;6.13;2.67;;;2.70;62.00;;;0.68;71.83;96000.06;4983294;28;20046;-69
2021/01/14 10:24:33;;;;;;;8.32;3.40;;;2.70;62.80;;;0.70;69.41;96003.38;4987828;28;20043;-72
2021/01/14 10:27:12;;;;;;;8.88;4.10;;;2.80;63.60;;;0.72;68.47;96011.84;4988061;28;20121;-72
2021/01/14 10:29:40;;;;;;;5.60;2.25;;;2.80;62.90;;;0.69;71.60;96012.91;4988552;28;20097;-68
2021/01/14 10:32:08;;;;;;;4.70;2.10;;;2.70;61.90;;;0.60;71.29;96003.31;4988931;28;20038;-72
2021/01/14 10:34:47;;;;;;;7.13;2.00;;;2.60;62.30;;;0.63;68.74;96010.81;4987279;28;20046;-70
2021/01/14 10:37:20;;;;;;;4.20;1.60;;;2.60;62.30;;;0.60;69.57;96008.50;4988893;28;20040;-68
2021/01/14 10:39:46;;;;;;;4.85;1.60;;;2.60;62.70;;;0.59;71.08;96014.63;4987116;28;20069;-70
2021/01/14 10:42:31;;;;;;;4.53;1.92;;;2.60;62.90;;;0.54;68.51;96016.78;4987263;28;20034;-69
2021/01/14 10:45:11;;;;;;;5.40;2.03;;;2.60;62.70;;;0.51;68.69;96015.28;4985194;28;20498;-68
2021/01/14 10:47:40;;;;;;;4.07;1.67;;;2.60;63.10;;;0.51;70.92;96019.66;4981401;28;20042;-69
2021/01/14 10:50:21;;;;;;;7.00;2.25;;;2.60;63.50;;;0.49;69.57;96017.19;4987649;28;20080;-68